Terminal Aerodrome Forecast
Issued by NWS

Home | Current Version | Previous Version | Text Only | Print | Product List | Glossary On
Versions: 1 2 3 4 5 6 7 8 9 10 11 12 13 14 15 16 17 18 19
000
FTUS46 KHNX 072031 AAA
TAFVIS
TAF AMD
KVIS 072031Z 0721/0818 VRB03KT 5SM HZ SKC
     FM080400 VRB02KT 2SM BR BKN007
     FM080600 VRB04KT 1/4SM FG OVC002
      TEMPO 0808/0812 1/2SM FG OVC002
     FM081200 12007KT 1/2SM FG OVC002 PROB30 0812/0818 3SM -RA BR
      BKN002 OVC030=

USA.gov is the U.S. government's official web portal to all federal, state and local government web resources and services.